sensor_id;sensor_type;location;lat;lon;timestamp;P1;durP1;ratioP1;P2;durP2;ratioP2
39426;SDS011;25938;48.470;1.486;2023-04-25T00:02:02;5.05;;;3.55;;
39426;SDS011;25938;48.470;1.486;2023-04-25T00:04:28;3.83;;;3.30;;
39426;SDS011;25938;48.470;1.486;2023-04-25T00:06:54;3.17;;;2.88;;
39426;SDS011;25938;48.470;1.486;2023-04-25T00:09:20;3.90;;;2.70;;
39426;SDS011;25938;48.470;1.486;2023-04-25T00:11:47;5.55;;;3.45;;
39426;SDS011;25938;48.470;1.486;2023-04-25T00:14:12;3.63;;;3.30;;
39426;SDS011;25938;48.470;1.486;2023-04-25T00:16:38;6.97;;;3.38;;
39426;SDS011;25938;48.470;1.486;2023-04-25T00:19:04;4.30;;;3.60;;
39426;SDS011;25938;48.470;1.486;2023-04-25T00:21:30;5.07;;;3.15;;
39426;SDS011;25938;48.470;1.486;2023-04-25T00:23:56;6.35;;;2.97;;
39426;SDS011;25938;48.470;1.486;2023-04-25T00:26:22;5.32;;;2.50;;
39426;SDS011;25938;48.470;1.486;2023-04-25T00:28:47;4.78;;;2.33;;
39426;SDS011;25938;48.470;1.486;2023-04-25T00:31:13;6.65;;;1.92;;
39426;SDS011;25938;48.470;1.486;2023-04-25T00:33:39;2.85;;;1.60;;
39426;SDS011;25938;48.470;1.486;2023-04-25T00:36:05;3.85;;;1.67;;
39426;SDS011;25938;48.470;1.486;2023-04-25T00:38:31;2.97;;;1.92;;
39426;SDS011;25938;48.470;1.486;2023-04-25T00:40:57;6.43;;;2.53;;
39426;SDS011;25938;48.470;1.486;2023-04-25T00:43:24;6.38;;;2.00;;
39426;SDS011;25938;48.470;1.486;2023-04-25T00:45:51;3.53;;;1.50;;
39426;SDS011;25938;48.470;1.486;2023-04-25T00:48:17;3.58;;;1.40;;
39426;SDS011;25938;48.470;1.486;2023-04-25T00:50:51;5.68;;;2.40;;
39426;SDS011;25938;48.470;1.486;2023-04-25T00:53:19;3.55;;;1.98;;
39426;SDS011;25938;48.470;1.486;2023-04-25T00:55:45;6.00;;;2.15;;
39426;SDS011;25938;48.470;1.486;2023-04-25T00:58:11;3.85;;;1.25;;
39426;SDS011;25938;48.470;1.486;2023-04-25T01:00:37;2.65;;;1.30;;
39426;SDS011;25938;48.470;1.486;2023-04-25T01:03:03;5.00;;;2.08;;
39426;SDS011;25938;48.470;1.486;2023-04-25T01:05:28;5.75;;;2.53;;
39426;SDS011;25938;48.470;1.486;2023-04-25T01:07:54;5.15;;;1.92;;
39426;SDS011;25938;48.470;1.486;2023-04-25T01:10:20;5.78;;;2.90;;
39426;SDS011;25938;48.470;1.486;2023-04-25T01:12:46;7.53;;;3.67;;
39426;SDS011;25938;48.470;1.486;2023-04-25T01:15:12;6.25;;;3.67;;
39426;SDS011;25938;48.470;1.486;2023-04-25T01:17:38;5.13;;;3.20;;
39426;SDS011;25938;48.470;1.486;2023-04-25T01:20:06;6.30;;;2.33;;
39426;SDS011;25938;48.470;1.486;2023-04-25T01:22:34;4.82;;;2.40;;
39426;SDS011;25938;48.470;1.486;2023-04-25T01:25:00;7.22;;;2.63;;
39426;SDS011;25938;48.470;1.486;2023-04-25T01:27:26;4.05;;;2.80;;
39426;SDS011;25938;48.470;1.486;2023-04-25T01:29:53;5.05;;;2.35;;
39426;SDS011;25938;48.470;1.486;2023-04-25T01:32:19;7.70;;;1.70;;
39426;SDS011;25938;48.470;1.486;2023-04-25T01:34:47;2.42;;;1.50;;
39426;SDS011;25938;48.470;1.486;2023-04-25T01:37:12;5.35;;;1.95;;
39426;SDS011;25938;48.470;1.486;2023-04-25T01:39:38;3.05;;;1.58;;
39426;SDS011;25938;48.470;1.486;2023-04-25T01:42:03;4.20;;;1.35;;
39426;SDS011;25938;48.470;1.486;2023-04-25T01:44:29;4.60;;;1.55;;
39426;SDS011;25938;48.470;1.486;2023-04-25T01:46:55;6.07;;;1.98;;
39426;SDS011;25938;48.470;1.486;2023-04-25T01:49:21;4.80;;;1.85;;
39426;SDS011;25938;48.470;1.486;2023-04-25T01:51:46;6.10;;;1.92;;
39426;SDS011;25938;48.470;1.486;2023-04-25T01:54:12;2.30;;;1.58;;
39426;SDS011;25938;48.470;1.486;2023-04-25T01:56:38;2.78;;;1.30;;
39426;SDS011;25938;48.470;1.486;2023-04-25T01:59:05;4.40;;;1.67;;
39426;SDS011;25938;48.470;1.486;2023-04-25T02:01:31;2.75;;;1.42;;
39426;SDS011;25938;48.470;1.486;2023-04-25T02:03:57;3.88;;;2.40;;
39426;SDS011;25938;48.470;1.486;2023-04-25T02:06:23;4.60;;;1.52;;
39426;SDS011;25938;48.470;1.486;2023-04-25T02:08:49;2.40;;;1.35;;
39426;SDS011;25938;48.470;1.486;2023-04-25T02:11:15;4.20;;;1.52;;
39426;SDS011;25938;48.470;1.486;2023-04-25T02:13:40;7.35;;;2.03;;
39426;SDS011;25938;48.470;1.486;2023-04-25T02:16:06;3.80;;;1.40;;
39426;SDS011;25938;48.470;1.486;2023-04-25T02:18:32;4.25;;;1.55;;
39426;SDS011;25938;48.470;1.486;2023-04-25T02:20:58;7.07;;;1.80;;
39426;SDS011;25938;48.470;1.486;2023-04-25T02:23:24;4.18;;;1.85;;
39426;SDS011;25938;48.470;1.486;2023-04-25T02:25:50;1.77;;;1.67;;
39426;SDS011;25938;48.470;1.486;2023-04-25T02:28:16;3.55;;;1.55;;
39426;SDS011;25938;48.470;1.486;2023-04-25T02:30:42;4.40;;;2.42;;
39426;SDS011;25938;48.470;1.486;2023-04-25T02:33:08;4.78;;;1.38;;
39426;SDS011;25938;48.470;1.486;2023-04-25T02:35:33;3.08;;;1.27;;
39426;SDS011;25938;48.470;1.486;2023-04-25T02:37:59;6.65;;;1.88;;
39426;SDS011;25938;48.470;1.486;2023-04-25T02:40:25;4.78;;;1.90;;
39426;SDS011;25938;48.470;1.486;2023-04-25T02:42:51;3.75;;;1.52;;
39426;SDS011;25938;48.470;1.486;2023-04-25T02:45:16;6.57;;;1.92;;
39426;SDS011;25938;48.470;1.486;2023-04-25T02:47:42;3.50;;;1.85;;
39426;SDS011;25938;48.470;1.486;2023-04-25T02:50:08;4.80;;;1.40;;
39426;SDS011;25938;48.470;1.486;2023-04-25T02:52:34;5.70;;;1.95;;
39426;SDS011;25938;48.470;1.486;2023-04-25T02:55:00;2.97;;;1.40;;
39426;SDS011;25938;48.470;1.486;2023-04-25T02:57:25;2.97;;;1.80;;
39426;SDS011;25938;48.470;1.486;2023-04-25T02:59:51;4.43;;;1.70;;
39426;SDS011;25938;48.470;1.486;2023-04-25T03:02:17;4.25;;;1.70;;
39426;SDS011;25938;48.470;1.486;2023-04-25T03:04:42;4.25;;;2.33;;
39426;SDS011;25938;48.470;1.486;2023-04-25T03:07:08;5.28;;;2.38;;
39426;SDS011;25938;48.470;1.486;2023-04-25T03:09:33;3.38;;;2.25;;
39426;SDS011;25938;48.470;1.486;2023-04-25T03:11:59;4.70;;;2.33;;
39426;SDS011;25938;48.470;1.486;2023-04-25T03:14:25;6.05;;;3.03;;
39426;SDS011;25938;48.470;1.486;2023-04-25T03:16:50;4.90;;;1.98;;
39426;SDS011;25938;48.470;1.486;2023-04-25T03:19:16;6.30;;;1.73;;
39426;SDS011;25938;48.470;1.486;2023-04-25T03:21:42;6.78;;;2.25;;
39426;SDS011;25938;48.470;1.486;2023-04-25T03:24:09;3.75;;;2.05;;
39426;SDS011;25938;48.470;1.486;2023-04-25T03:26:36;6.28;;;2.55;;
39426;SDS011;25938;48.470;1.486;2023-04-25T03:29:01;4.95;;;1.92;;
39426;SDS011;25938;48.470;1.486;2023-04-25T03:31:27;3.00;;;1.92;;
39426;SDS011;25938;48.470;1.486;2023-04-25T03:33:52;6.93;;;1.98;;
39426;SDS011;25938;48.470;1.486;2023-04-25T03:36:18;7.05;;;2.15;;
39426;SDS011;25938;48.470;1.486;2023-04-25T03:38:44;8.23;;;2.35;;
39426;SDS011;25938;48.470;1.486;2023-04-25T03:41:10;5.90;;;2.55;;
39426;SDS011;25938;48.470;1.486;2023-04-25T03:43:35;7.68;;;2.63;;
39426;SDS011;25938;48.470;1.486;2023-04-25T03:46:01;4.35;;;1.90;;
39426;SDS011;25938;48.470;1.486;2023-04-25T03:48:26;2.67;;;1.90;;
39426;SDS011;25938;48.470;1.486;2023-04-25T03:50:52;7.22;;;2.97;;
39426;SDS011;25938;48.470;1.486;2023-04-25T03:53:19;3.70;;;2.58;;
39426;SDS011;25938;48.470;1.486;2023-04-25T03:55:45;7.18;;;2.88;;
39426;SDS011;25938;48.470;1.486;2023-04-25T03:58:10;6.25;;;2.20;;
39426;SDS011;25938;48.470;1.486;2023-04-25T04:00:36;5.22;;;2.70;;
39426;SDS011;25938;48.470;1.486;2023-04-25T04:03:02;3.42;;;2.17;;
39426;SDS011;25938;48.470;1.486;2023-04-25T04:05:28;3.10;;;1.75;;
39426;SDS011;25938;48.470;1.486;2023-04-25T04:07:54;2.92;;;1.88;;
39426;SDS011;25938;48.470;1.486;2023-04-25T04:10:20;5.78;;;2.00;;
39426;SDS011;25938;48.470;1.486;2023-04-25T04:12:46;3.65;;;2.13;;
39426;SDS011;25938;48.470;1.486;2023-04-25T04:15:11;4.30;;;2.00;;
39426;SDS011;25938;48.470;1.486;2023-04-25T04:17:37;4.68;;;1.98;;
39426;SDS011;25938;48.470;1.486;2023-04-25T04:20:03;4.35;;;1.75;;
39426;SDS011;25938;48.470;1.486;2023-04-25T04:22:30;5.00;;;2.17;;
39426;SDS011;25938;48.470;1.486;2023-04-25T04:24:56;3.55;;;1.67;;
39426;SDS011;25938;48.470;1.486;2023-04-25T04:27:22;4.22;;;2.10;;
39426;SDS011;25938;48.470;1.486;2023-04-25T04:29:48;6.15;;;2.70;;
39426;SDS011;25938;48.470;1.486;2023-04-25T04:32:15;3.67;;;1.60;;
39426;SDS011;25938;48.470;1.486;2023-04-25T04:34:42;4.25;;;1.80;;
39426;SDS011;25938;48.470;1.486;2023-04-25T04:37:07;5.07;;;2.35;;
39426;SDS011;25938;48.470;1.486;2023-04-25T04:39:34;9.45;;;4.60;;
39426;SDS011;25938;48.470;1.486;2023-04-25T04:42:00;55.42;;;27.77;;
39426;SDS011;25938;48.470;1.486;2023-04-25T04:44:29;48.20;;;27.05;;
39426;SDS011;25938;48.470;1.486;2023-04-25T04:46:57;33.65;;;22.77;;
39426;SDS011;25938;48.470;1.486;2023-04-25T04:49:23;9.82;;;7.25;;
39426;SDS011;25938;48.470;1.486;2023-04-25T04:51:49;8.93;;;6.40;;
39426;SDS011;25938;48.470;1.486;2023-04-25T04:54:14;6.82;;;4.75;;
39426;SDS011;25938;48.470;1.486;2023-04-25T04:56:40;10.10;;;4.20;;
39426;SDS011;25938;48.470;1.486;2023-04-25T04:59:06;4.18;;;3.30;;
39426;SDS011;25938;48.470;1.486;2023-04-25T05:01:32;3.67;;;2.70;;
39426;SDS011;25938;48.470;1.486;2023-04-25T05:04:00;6.63;;;2.58;;
39426;SDS011;25938;48.470;1.486;2023-04-25T05:06:26;3.03;;;2.42;;
39426;SDS011;25938;48.470;1.486;2023-04-25T05:08:54;6.28;;;3.83;;
39426;SDS011;25938;48.470;1.486;2023-04-25T05:11:19;5.95;;;2.67;;
39426;SDS011;25938;48.470;1.486;2023-04-25T05:13:45;6.50;;;3.13;;
39426;SDS011;25938;48.470;1.486;2023-04-25T05:16:11;6.68;;;2.75;;
39426;SDS011;25938;48.470;1.486;2023-04-25T05:18:38;7.05;;;2.40;;
39426;SDS011;25938;48.470;1.486;2023-04-25T05:21:04;6.47;;;2.25;;
39426;SDS011;25938;48.470;1.486;2023-04-25T05:23:30;7.82;;;2.65;;
39426;SDS011;25938;48.470;1.486;2023-04-25T05:25:57;4.78;;;2.40;;
39426;SDS011;25938;48.470;1.486;2023-04-25T05:28:23;5.15;;;2.70;;
39426;SDS011;25938;48.470;1.486;2023-04-25T05:30:48;5.25;;;2.17;;
39426;SDS011;25938;48.470;1.486;2023-04-25T05:33:14;4.80;;;2.10;;
39426;SDS011;25938;48.470;1.486;2023-04-25T05:35:40;5.25;;;2.50;;
39426;SDS011;25938;48.470;1.486;2023-04-25T05:38:06;5.35;;;2.72;;
39426;SDS011;25938;48.470;1.486;2023-04-25T05:40:31;5.45;;;2.65;;
39426;SDS011;25938;48.470;1.486;2023-04-25T05:42:57;5.15;;;3.03;;
39426;SDS011;25938;48.470;1.486;2023-04-25T05:45:23;5.40;;;2.13;;
39426;SDS011;25938;48.470;1.486;2023-04-25T05:47:48;7.47;;;2.42;;
39426;SDS011;25938;48.470;1.486;2023-04-25T05:50:14;4.93;;;3.03;;
39426;SDS011;25938;48.470;1.486;2023-04-25T05:52:39;7.35;;;2.15;;
39426;SDS011;25938;48.470;1.486;2023-04-25T05:55:05;6.30;;;2.13;;
39426;SDS011;25938;48.470;1.486;2023-04-25T05:57:31;4.35;;;2.92;;
39426;SDS011;25938;48.470;1.486;2023-04-25T05:59:56;4.93;;;3.05;;
39426;SDS011;25938;48.470;1.486;2023-04-25T06:02:22;4.40;;;2.28;;
39426;SDS011;25938;48.470;1.486;2023-04-25T06:04:51;3.88;;;2.25;;
39426;SDS011;25938;48.470;1.486;2023-04-25T06:07:17;6.10;;;2.78;;
39426;SDS011;25938;48.470;1.486;2023-04-25T06:09:43;5.88;;;2.83;;
39426;SDS011;25938;48.470;1.486;2023-04-25T06:12:09;4.03;;;2.88;;
39426;SDS011;25938;48.470;1.486;2023-04-25T06:14:35;3.80;;;2.83;;
39426;SDS011;25938;48.470;1.486;2023-04-25T06:17:00;13.38;;;3.03;;
39426;SDS011;25938;48.470;1.486;2023-04-25T06:19:32;7.55;;;3.00;;
39426;SDS011;25938;48.470;1.486;2023-04-25T06:21:57;7.40;;;3.08;;
39426;SDS011;25938;48.470;1.486;2023-04-25T06:24:23;6.88;;;3.40;;
39426;SDS011;25938;48.470;1.486;2023-04-25T06:26:49;3.13;;;1.70;;
39426;SDS011;25938;48.470;1.486;2023-04-25T06:29:14;4.53;;;2.65;;
39426;SDS011;25938;48.470;1.486;2023-04-25T06:31:40;6.22;;;2.90;;
39426;SDS011;25938;48.470;1.486;2023-04-25T06:34:06;5.15;;;2.97;;
39426;SDS011;25938;48.470;1.486;2023-04-25T06:36:31;3.47;;;2.95;;
39426;SDS011;25938;48.470;1.486;2023-04-25T06:38:57;6.63;;;3.47;;
39426;SDS011;25938;48.470;1.486;2023-04-25T06:41:23;3.42;;;2.20;;
39426;SDS011;25938;48.470;1.486;2023-04-25T06:43:48;2.03;;;1.20;;
39426;SDS011;25938;48.470;1.486;2023-04-25T06:46:16;6.70;;;3.20;;
39426;SDS011;25938;48.470;1.486;2023-04-25T06:48:42;5.93;;;3.60;;
39426;SDS011;25938;48.470;1.486;2023-04-25T06:51:08;4.43;;;2.78;;
39426;SDS011;25938;48.470;1.486;2023-04-25T06:53:33;6.03;;;3.83;;
39426;SDS011;25938;48.470;1.486;2023-04-25T06:55:59;6.10;;;3.67;;
39426;SDS011;25938;48.470;1.486;2023-04-25T06:58:24;2.42;;;2.15;;
39426;SDS011;25938;48.470;1.486;2023-04-25T07:00:51;5.95;;;2.58;;
39426;SDS011;25938;48.470;1.486;2023-04-25T07:03:17;6.72;;;3.40;;
39426;SDS011;25938;48.470;1.486;2023-04-25T07:05:42;3.35;;;2.92;;
39426;SDS011;25938;48.470;1.486;2023-04-25T07:08:08;2.85;;;2.65;;
39426;SDS011;25938;48.470;1.486;2023-04-25T07:10:34;4.78;;;2.90;;
39426;SDS011;25938;48.470;1.486;2023-04-25T07:13:00;4.57;;;2.60;;
39426;SDS011;25938;48.470;1.486;2023-04-25T07:15:25;3.65;;;2.28;;
39426;SDS011;25938;48.470;1.486;2023-04-25T07:17:51;3.78;;;2.35;;
39426;SDS011;25938;48.470;1.486;2023-04-25T07:20:17;2.63;;;2.05;;
39426;SDS011;25938;48.470;1.486;2023-04-25T07:22:42;4.20;;;2.45;;
39426;SDS011;25938;48.470;1.486;2023-04-25T07:25:09;4.35;;;2.60;;
39426;SDS011;25938;48.470;1.486;2023-04-25T07:27:34;2.20;;;1.98;;
39426;SDS011;25938;48.470;1.486;2023-04-25T07:30:00;3.28;;;2.22;;
39426;SDS011;25938;48.470;1.486;2023-04-25T07:32:26;6.50;;;2.38;;
39426;SDS011;25938;48.470;1.486;2023-04-25T07:34:52;3.60;;;2.30;;
39426;SDS011;25938;48.470;1.486;2023-04-25T07:37:17;3.20;;;2.00;;
39426;SDS011;25938;48.470;1.486;2023-04-25T07:39:44;3.65;;;1.67;;
39426;SDS011;25938;48.470;1.486;2023-04-25T07:42:11;2.83;;;2.17;;
39426;SDS011;25938;48.470;1.486;2023-04-25T07:44:37;4.45;;;3.03;;
39426;SDS011;25938;48.470;1.486;2023-04-25T07:47:07;5.13;;;2.78;;
39426;SDS011;25938;48.470;1.486;2023-04-25T07:49:34;4.53;;;1.98;;
39426;SDS011;25938;48.470;1.486;2023-04-25T07:52:00;4.22;;;1.90;;
39426;SDS011;25938;48.470;1.486;2023-04-25T07:54:26;2.80;;;2.60;;
39426;SDS011;25938;48.470;1.486;2023-04-25T07:56:52;2.80;;;1.65;;
39426;SDS011;25938;48.470;1.486;2023-04-25T07:59:18;3.45;;;2.00;;
39426;SDS011;25938;48.470;1.486;2023-04-25T08:01:43;4.28;;;2.45;;
39426;SDS011;25938;48.470;1.486;2023-04-25T08:04:09;3.22;;;3.03;;
39426;SDS011;25938;48.470;1.486;2023-04-25T08:06:35;3.72;;;2.00;;
39426;SDS011;25938;48.470;1.486;2023-04-25T08:09:01;2.88;;;1.98;;
39426;SDS011;25938;48.470;1.486;2023-04-25T08:11:26;6.68;;;2.38;;
39426;SDS011;25938;48.470;1.486;2023-04-25T08:13:52;2.70;;;2.08;;
39426;SDS011;25938;48.470;1.486;2023-04-25T08:16:18;3.85;;;1.92;;
39426;SDS011;25938;48.470;1.486;2023-04-25T08:18:43;5.07;;;1.63;;
39426;SDS011;25938;48.470;1.486;2023-04-25T08:21:09;3.15;;;1.95;;
39426;SDS011;25938;48.470;1.486;2023-04-25T08:23:36;2.85;;;2.58;;
39426;SDS011;25938;48.470;1.486;2023-04-25T08:26:02;3.42;;;1.70;;
39426;SDS011;25938;48.470;1.486;2023-04-25T08:28:29;3.25;;;1.52;;
39426;SDS011;25938;48.470;1.486;2023-04-25T08:30:55;2.85;;;2.17;;
39426;SDS011;25938;48.470;1.486;2023-04-25T08:33:21;2.17;;;1.65;;
39426;SDS011;25938;48.470;1.486;2023-04-25T08:35:46;2.25;;;1.70;;
39426;SDS011;25938;48.470;1.486;2023-04-25T08:38:12;4.20;;;2.28;;
39426;SDS011;25938;48.470;1.486;2023-04-25T08:40:38;4.13;;;1.70;;
39426;SDS011;25938;48.470;1.486;2023-04-25T08:43:05;3.13;;;2.05;;
39426;SDS011;25938;48.470;1.486;2023-04-25T08:45:36;2.53;;;1.80;;
39426;SDS011;25938;48.470;1.486;2023-04-25T08:48:06;4.13;;;1.73;;
39426;SDS011;25938;48.470;1.486;2023-04-25T08:50:36;2.55;;;1.80;;
39426;SDS011;25938;48.470;1.486;2023-04-25T08:53:09;2.08;;;1.88;;
39426;SDS011;25938;48.470;1.486;2023-04-25T08:55:38;3.38;;;1.88;;
39426;SDS011;25938;48.470;1.486;2023-04-25T08:58:06;3.65;;;1.80;;
39426;SDS011;25938;48.470;1.486;2023-04-25T09:00:32;2.58;;;1.33;;
39426;SDS011;25938;48.470;1.486;2023-04-25T09:02:58;2.20;;;2.00;;
39426;SDS011;25938;48.470;1.486;2023-04-25T09:05:24;3.88;;;1.98;;
39426;SDS011;25938;48.470;1.486;2023-04-25T09:07:50;5.10;;;2.40;;
39426;SDS011;25938;48.470;1.486;2023-04-25T09:10:16;3.17;;;2.08;;
39426;SDS011;25938;48.470;1.486;2023-04-25T09:12:41;4.38;;;2.17;;
39426;SDS011;25938;48.470;1.486;2023-04-25T09:15:08;2.13;;;1.75;;
39426;SDS011;25938;48.470;1.486;2023-04-25T09:17:35;2.95;;;1.63;;
39426;SDS011;25938;48.470;1.486;2023-04-25T09:20:14;4.13;;;2.08;;
39426;SDS011;25938;48.470;1.486;2023-04-25T09:22:40;4.50;;;1.98;;
39426;SDS011;25938;48.470;1.486;2023-04-25T09:25:08;2.58;;;2.08;;
39426;SDS011;25938;48.470;1.486;2023-04-25T09:27:57;4.18;;;1.80;;
39426;SDS011;25938;48.470;1.486;2023-04-25T09:30:29;3.97;;;1.75;;
39426;SDS011;25938;48.470;1.486;2023-04-25T09:33:09;3.40;;;2.17;;
39426;SDS011;25938;48.470;1.486;2023-04-25T09:35:43;4.55;;;1.95;;
39426;SDS011;25938;48.470;1.486;2023-04-25T09:38:10;6.30;;;2.72;;
39426;SDS011;25938;48.470;1.486;2023-04-25T09:40:41;5.15;;;2.53;;
39426;SDS011;25938;48.470;1.486;2023-04-25T09:43:09;3.08;;;2.45;;
39426;SDS011;25938;48.470;1.486;2023-04-25T09:45:45;2.78;;;2.22;;
39426;SDS011;25938;48.470;1.486;2023-04-25T09:48:16;6.57;;;2.53;;
39426;SDS011;25938;48.470;1.486;2023-04-25T09:50:43;5.40;;;2.10;;
39426;SDS011;25938;48.470;1.486;2023-04-25T09:53:09;4.97;;;2.55;;
39426;SDS011;25938;48.470;1.486;2023-04-25T09:55:35;4.07;;;1.92;;
39426;SDS011;25938;48.470;1.486;2023-04-25T09:58:03;4.63;;;1.77;;
39426;SDS011;25938;48.470;1.486;2023-04-25T10:00:31;4.07;;;1.52;;
39426;SDS011;25938;48.470;1.486;2023-04-25T10:02:59;3.75;;;1.85;;
39426;SDS011;25938;48.470;1.486;2023-04-25T10:05:28;2.97;;;1.88;;
39426;SDS011;25938;48.470;1.486;2023-04-25T10:07:57;4.18;;;1.85;;
39426;SDS011;25938;48.470;1.486;2023-04-25T10:10:24;5.07;;;1.80;;
39426;SDS011;25938;48.470;1.486;2023-04-25T10:12:52;4.88;;;2.08;;
39426;SDS011;25938;48.470;1.486;2023-04-25T10:15:19;2.05;;;1.77;;
39426;SDS011;25938;48.470;1.486;2023-04-25T10:17:46;3.05;;;1.50;;
39426;SDS011;25938;48.470;1.486;2023-04-25T10:20:14;3.25;;;1.60;;
39426;SDS011;25938;48.470;1.486;2023-04-25T10:22:44;4.30;;;1.77;;
39426;SDS011;25938;48.470;1.486;2023-04-25T10:25:11;2.55;;;1.75;;
39426;SDS011;25938;48.470;1.486;2023-04-25T10:27:38;4.63;;;1.83;;
39426;SDS011;25938;48.470;1.486;2023-04-25T10:32:31;4.10;;;1.63;;
39426;SDS011;25938;48.470;1.486;2023-04-25T10:35:13;4.35;;;2.03;;
39426;SDS011;25938;48.470;1.486;2023-04-25T10:40:29;2.90;;;1.92;;
39426;SDS011;25938;48.470;1.486;2023-04-25T10:42:56;3.83;;;1.92;;
39426;SDS011;25938;48.470;1.486;2023-04-25T10:48:48;3.33;;;1.50;;
39426;SDS011;25938;48.470;1.486;2023-04-25T10:51:25;1.95;;;1.08;;
39426;SDS011;25938;48.470;1.486;2023-04-25T10:56:36;2.20;;;1.25;;
39426;SDS011;25938;48.470;1.486;2023-04-25T11:01:39;2.55;;;1.35;;
39426;SDS011;25938;48.470;1.486;2023-04-25T11:04:06;3.78;;;1.23;;
39426;SDS011;25938;48.470;1.486;2023-04-25T11:06:46;2.35;;;0.90;;
39426;SDS011;25938;48.470;1.486;2023-04-25T11:09:28;3.33;;;1.30;;
39426;SDS011;25938;48.470;1.486;2023-04-25T11:11:55;2.45;;;0.70;;
39426;SDS011;25938;48.470;1.486;2023-04-25T11:14:21;2.22;;;1.27;;
39426;SDS011;25938;48.470;1.486;2023-04-25T11:16:52;1.35;;;0.80;;
39426;SDS011;25938;48.470;1.486;2023-04-25T11:19:21;1.70;;;1.55;;
39426;SDS011;25938;48.470;1.486;2023-04-25T11:21:47;1.10;;;0.77;;
39426;SDS011;25938;48.470;1.486;2023-04-25T11:24:13;3.63;;;1.65;;
39426;SDS011;25938;48.470;1.486;2023-04-25T11:26:41;2.58;;;0.82;;
39426;SDS011;25938;48.470;1.486;2023-04-25T11:29:07;1.80;;;1.10;;
39426;SDS011;25938;48.470;1.486;2023-04-25T11:31:32;3.15;;;1.10;;
39426;SDS011;25938;48.470;1.486;2023-04-25T11:33:58;3.15;;;1.08;;
39426;SDS011;25938;48.470;1.486;2023-04-25T11:36:25;3.55;;;1.13;;
39426;SDS011;25938;48.470;1.486;2023-04-25T11:38:51;2.83;;;1.33;;
39426;SDS011;25938;48.470;1.486;2023-04-25T11:41:18;5.38;;;2.05;;
39426;SDS011;25938;48.470;1.486;2023-04-25T11:43:44;1.73;;;1.15;;
39426;SDS011;25938;48.470;1.486;2023-04-25T11:46:10;3.03;;;1.65;;
39426;SDS011;25938;48.470;1.486;2023-04-25T11:48:39;3.03;;;1.13;;
39426;SDS011;25938;48.470;1.486;2023-04-25T11:51:06;3.65;;;1.70;;
39426;SDS011;25938;48.470;1.486;2023-04-25T11:53:32;4.30;;;2.08;;
39426;SDS011;25938;48.470;1.486;2023-04-25T11:55:58;5.47;;;1.30;;
39426;SDS011;25938;48.470;1.486;2023-04-25T11:58:23;2.53;;;1.10;;
39426;SDS011;25938;48.470;1.486;2023-04-25T12:00:50;2.67;;;0.95;;
39426;SDS011;25938;48.470;1.486;2023-04-25T12:03:15;2.80;;;1.35;;
39426;SDS011;25938;48.470;1.486;2023-04-25T12:05:43;4.00;;;1.02;;
39426;SDS011;25938;48.470;1.486;2023-04-25T12:08:13;3.88;;;0.90;;
39426;SDS011;25938;48.470;1.486;2023-04-25T12:10:40;5.43;;;1.50;;
39426;SDS011;25938;48.470;1.486;2023-04-25T12:13:24;2.72;;;0.90;;
39426;SDS011;25938;48.470;1.486;2023-04-25T12:15:51;2.28;;;1.20;;
39426;SDS011;25938;48.470;1.486;2023-04-25T12:18:20;4.88;;;1.05;;
39426;SDS011;25938;48.470;1.486;2023-04-25T12:20:47;2.85;;;0.90;;
39426;SDS011;25938;48.470;1.486;2023-04-25T12:23:13;2.03;;;0.90;;
39426;SDS011;25938;48.470;1.486;2023-04-25T12:25:39;4.90;;;1.55;;
39426;SDS011;25938;48.470;1.486;2023-04-25T12:30:52;2.60;;;1.13;;
39426;SDS011;25938;48.470;1.486;2023-04-25T12:33:28;3.53;;;1.70;;
39426;SDS011;25938;48.470;1.486;2023-04-25T12:36:02;2.13;;;1.00;;
39426;SDS011;25938;48.470;1.486;2023-04-25T12:38:35;2.10;;;1.08;;
39426;SDS011;25938;48.470;1.486;2023-04-25T12:41:03;1.80;;;1.38;;
39426;SDS011;25938;48.470;1.486;2023-04-25T12:43:28;2.55;;;1.70;;
39426;SDS011;25938;48.470;1.486;2023-04-25T12:45:55;2.10;;;0.90;;
39426;SDS011;25938;48.470;1.486;2023-04-25T12:48:21;2.42;;;1.30;;
39426;SDS011;25938;48.470;1.486;2023-04-25T12:50:47;2.90;;;1.17;;
39426;SDS011;25938;48.470;1.486;2023-04-25T12:53:14;2.55;;;1.20;;
39426;SDS011;25938;48.470;1.486;2023-04-25T12:55:41;1.77;;;1.00;;
39426;SDS011;25938;48.470;1.486;2023-04-25T12:58:06;3.60;;;1.40;;
39426;SDS011;25938;48.470;1.486;2023-04-25T13:00:32;2.10;;;0.95;;
39426;SDS011;25938;48.470;1.486;2023-04-25T13:02:58;6.43;;;1.00;;
39426;SDS011;25938;48.470;1.486;2023-04-25T13:05:24;2.78;;;0.73;;
39426;SDS011;25938;48.470;1.486;2023-04-25T13:07:50;2.15;;;0.85;;
39426;SDS011;25938;48.470;1.486;2023-04-25T13:10:16;2.30;;;0.68;;
39426;SDS011;25938;48.470;1.486;2023-04-25T13:12:42;3.92;;;1.67;;
39426;SDS011;25938;48.470;1.486;2023-04-25T13:15:08;3.08;;;0.65;;
39426;SDS011;25938;48.470;1.486;2023-04-25T13:17:36;1.80;;;0.95;;
39426;SDS011;25938;48.470;1.486;2023-04-25T13:20:03;0.88;;;0.50;;
39426;SDS011;25938;48.470;1.486;2023-04-25T13:22:34;2.95;;;0.90;;
39426;SDS011;25938;48.470;1.486;2023-04-25T13:25:03;4.32;;;1.02;;
39426;SDS011;25938;48.470;1.486;2023-04-25T13:27:30;2.08;;;0.90;;
39426;SDS011;25938;48.470;1.486;2023-04-25T13:29:57;1.75;;;1.30;;
39426;SDS011;25938;48.470;1.486;2023-04-25T13:32:23;4.35;;;1.27;;
39426;SDS011;25938;48.470;1.486;2023-04-25T13:34:50;3.97;;;1.25;;
39426;SDS011;25938;48.470;1.486;2023-04-25T13:37:16;2.88;;;0.80;;
39426;SDS011;25938;48.470;1.486;2023-04-25T13:39:42;2.13;;;0.80;;
39426;SDS011;25938;48.470;1.486;2023-04-25T13:42:07;2.45;;;0.95;;
39426;SDS011;25938;48.470;1.486;2023-04-25T13:44:33;2.03;;;0.80;;
39426;SDS011;25938;48.470;1.486;2023-04-25T13:46:58;1.83;;;0.93;;
39426;SDS011;25938;48.470;1.486;2023-04-25T13:49:25;2.47;;;1.13;;
39426;SDS011;25938;48.470;1.486;2023-04-25T13:51:51;3.67;;;0.70;;
39426;SDS011;25938;48.470;1.486;2023-04-25T13:54:17;2.33;;;0.80;;
39426;SDS011;25938;48.470;1.486;2023-04-25T13:56:42;2.40;;;0.80;;
39426;SDS011;25938;48.470;1.486;2023-04-25T13:59:08;2.17;;;1.17;;
39426;SDS011;25938;48.470;1.486;2023-04-25T14:01:33;2.25;;;0.90;;
39426;SDS011;25938;48.470;1.486;2023-04-25T14:04:00;4.05;;;1.58;;
39426;SDS011;25938;48.470;1.486;2023-04-25T14:06:26;2.78;;;1.10;;
39426;SDS011;25938;48.470;1.486;2023-04-25T14:08:52;1.67;;;1.00;;
39426;SDS011;25938;48.470;1.486;2023-04-25T14:11:18;2.13;;;0.82;;
39426;SDS011;25938;48.470;1.486;2023-04-25T14:13:44;2.58;;;1.27;;
39426;SDS011;25938;48.470;1.486;2023-04-25T14:16:10;1.73;;;0.63;;
39426;SDS011;25938;48.470;1.486;2023-04-25T14:18:36;1.85;;;0.82;;
39426;SDS011;25938;48.470;1.486;2023-04-25T14:21:02;2.88;;;0.68;;
39426;SDS011;25938;48.470;1.486;2023-04-25T14:23:27;2.55;;;0.75;;
39426;SDS011;25938;48.470;1.486;2023-04-25T14:25:53;2.00;;;0.57;;
39426;SDS011;25938;48.470;1.486;2023-04-25T14:28:19;2.00;;;1.20;;
39426;SDS011;25938;48.470;1.486;2023-04-25T14:30:44;1.48;;;0.80;;
39426;SDS011;25938;48.470;1.486;2023-04-25T14:33:10;1.98;;;0.75;;
39426;SDS011;25938;48.470;1.486;2023-04-25T14:35:36;2.58;;;0.73;;
39426;SDS011;25938;48.470;1.486;2023-04-25T14:38:02;1.33;;;0.75;;
39426;SDS011;25938;48.470;1.486;2023-04-25T14:40:28;2.28;;;0.80;;
39426;SDS011;25938;48.470;1.486;2023-04-25T14:42:53;3.17;;;1.33;;
39426;SDS011;25938;48.470;1.486;2023-04-25T14:45:19;0.90;;;0.80;;
39426;SDS011;25938;48.470;1.486;2023-04-25T14:47:45;2.05;;;1.10;;
39426;SDS011;25938;48.470;1.486;2023-04-25T14:50:10;2.50;;;0.88;;
39426;SDS011;25938;48.470;1.486;2023-04-25T14:52:37;2.70;;;0.90;;
39426;SDS011;25938;48.470;1.486;2023-04-25T14:55:03;3.55;;;1.27;;
39426;SDS011;25938;48.470;1.486;2023-04-25T14:57:32;3.42;;;1.38;;
39426;SDS011;25938;48.470;1.486;2023-04-25T14:59:59;2.47;;;0.80;;
39426;SDS011;25938;48.470;1.486;2023-04-25T15:02:25;1.08;;;0.73;;